Time;durP1;ratioP1;P1;durP2;ratioP2;P2;SDS_P1;SDS_P2;PMS_P1;PMS_P2;Temp;Humidity;BMP_temperature;BMP_pressure;BME280_temperature;BME280_humidity;BME280_pressure;Samples;Min_cycle;Max_cycle;Signal;HPM_P1;HPM_P2
2022/06/27 00:00:26;;;;;;;11.37;4.23;;;;;;;;;;5052478;28;20962;-78
2022/06/27 00:02:52;;;;;;;7.27;4.53;;;;;;;;;;5052465;28;20419;-80
2022/06/27 00:05:18;;;;;;;5.60;4.10;;;;;;;;;;5052613;28;20773;-77
2022/06/27 00:07:44;;;;;;;7.13;4.10;;;;;;;;;;5052745;28;20393;-78
2022/06/27 00:10:10;;;;;;;4.33;3.93;;;;;;;;;;5052937;28;20490;-76
2022/06/27 00:12:36;;;;;;;4.83;4.33;;;;;;;;;;5052774;28;20416;-77
2022/06/27 00:15:03;;;;;;;4.80;3.70;;;;;;;;;;5052258;28;20438;-77
2022/06/27 00:17:29;;;;;;;3.93;3.50;;;;;;;;;;5052583;28;20445;-78
2022/06/27 00:19:55;;;;;;;4.67;4.20;;;;;;;;;;5052631;28;20379;-78
2022/06/27 00:22:21;;;;;;;5.80;3.80;;;;;;;;;;5052722;28;20759;-76
2022/06/27 00:24:47;;;;;;;10.77;3.70;;;;;;;;;;5051973;28;20758;-78
2022/06/27 00:27:13;;;;;;;6.47;3.83;;;;;;;;;;5052557;28;20412;-78
2022/06/27 00:29:40;;;;;;;5.23;4.43;;;;;;;;;;5052495;28;20494;-77
2022/06/27 00:32:07;;;;;;;4.77;4.37;;;;;;;;;;5056402;28;20476;-77
2022/06/27 00:34:33;;;;;;;4.70;4.23;;;;;;;;;;5054959;28;20417;-78
2022/06/27 00:37:00;;;;;;;6.70;4.47;;;;;;;;;;5056355;28;20446;-78
2022/06/27 00:39:26;;;;;;;6.70;4.50;;;;;;;;;;5056543;28;20483;-78
2022/06/27 00:41:52;;;;;;;6.30;4.87;;;;;;;;;;5056460;28;20404;-78
2022/06/27 00:44:35;;;;;;;5.67;5.10;;;;;;;;;;5056029;28;20416;-76
2022/06/27 00:47:01;;;;;;;6.30;4.40;;;;;;;;;;5056185;28;20440;-76
2022/06/27 00:49:27;;;;;;;9.67;4.07;;;;;;;;;;5056274;28;20416;-79
2022/06/27 00:51:53;;;;;;;9.47;4.40;;;;;;;;;;5056644;28;20404;-77
2022/06/27 00:54:19;;;;;;;5.67;4.57;;;;;;;;;;5055844;28;20408;-78
2022/06/27 00:56:46;;;;;;;7.53;5.17;;;;;;;;;;5056020;28;20464;-76
2022/06/27 00:59:12;;;;;;;7.07;4.90;;;;;;;;;;5055950;28;20454;-78
2022/06/27 01:01:38;;;;;;;6.00;4.90;;;;;;;;;;5056183;28;20416;-78
2022/06/27 01:04:04;;;;;;;5.93;5.30;;;;;;;;;;5054476;28;20399;-77
2022/06/27 01:06:30;;;;;;;11.13;4.70;;;;;;;;;;5055986;28;20460;-78
2022/06/27 01:08:56;;;;;;;6.20;4.90;;;;;;;;;;5054572;28;20765;-79
2022/06/27 01:11:22;;;;;;;6.60;4.70;;;;;;;;;;5056008;28;20512;-77
2022/06/27 01:13:49;;;;;;;6.37;4.83;;;;;;;;;;5055798;28;20433;-77
2022/06/27 01:16:16;;;;;;;7.13;5.20;;;;;;;;;;5055741;28;20975;-78
2022/06/27 01:18:42;;;;;;;6.30;5.27;;;;;;;;;;5055816;28;20413;-77
2022/06/27 01:21:09;;;;;;;4.77;4.37;;;;;;;;;;5055583;28;20388;-76
2022/06/27 01:23:35;;;;;;;7.63;5.00;;;;;;;;;;5055382;28;20408;-79
2022/06/27 01:26:01;;;;;;;5.47;4.77;;;;;;;;;;5055726;28;20950;-79
2022/06/27 01:28:27;;;;;;;8.03;4.27;;;;;;;;;;5055698;28;20842;-78
2022/06/27 01:30:53;;;;;;;6.03;5.13;;;;;;;;;;5054378;28;20515;-78
2022/06/27 01:33:19;;;;;;;4.73;4.33;;;;;;;;;;5055061;28;20428;-78
2022/06/27 01:35:46;;;;;;;6.17;5.10;;;;;;;;;;5055368;28;20433;-77
2022/06/27 01:38:12;;;;;;;7.00;5.40;;;;;;;;;;5055408;28;20420;-78
2022/06/27 01:40:38;;;;;;;8.00;5.20;;;;;;;;;;5054972;28;20402;-77
2022/06/27 01:43:05;;;;;;;8.40;5.13;;;;;;;;;;5054787;28;20439;-77
2022/06/27 01:45:32;;;;;;;10.43;4.80;;;;;;;;;;5055065;28;20543;-79
2022/06/27 01:47:58;;;;;;;8.83;5.07;;;;;;;;;;5055190;28;20454;-78
2022/06/27 01:50:25;;;;;;;7.90;6.37;;;;;;;;;;5055542;28;20768;-79
2022/06/27 01:52:52;;;;;;;9.73;6.30;;;;;;;;;;5053794;28;20413;-78
2022/06/27 01:55:19;;;;;;;10.60;5.57;;;;;;;;;;5055084;28;20439;-77
2022/06/27 01:57:46;;;;;;;13.43;5.90;;;;;;;;;;5055182;28;20537;-77
2022/06/27 02:00:14;;;;;;;7.83;5.30;;;;;;;;;;5055230;28;20491;-79
2022/06/27 02:02:40;;;;;;;5.23;4.30;;;;;;;;;;5053941;28;20443;-78
2022/06/27 02:05:07;;;;;;;8.57;5.77;;;;;;;;;;5053271;28;20527;-78
2022/06/27 02:07:33;;;;;;;11.20;5.30;;;;;;;;;;5054991;28;20467;-78
2022/06/27 02:09:59;;;;;;;11.53;6.07;;;;;;;;;;5054876;28;20420;-80
2022/06/27 02:12:28;;;;;;;10.50;6.20;;;;;;;;;;5054771;28;20495;-79
2022/06/27 02:14:54;;;;;;;11.40;6.90;;;;;;;;;;5053275;28;20429;-77
2022/06/27 02:17:21;;;;;;;8.30;6.20;;;;;;;;;;5054434;28;20460;-78
2022/06/27 02:19:47;;;;;;;5.60;5.20;;;;;;;;;;5054877;28;20409;-80
2022/06/27 02:22:13;;;;;;;7.30;5.93;;;;;;;;;;5054798;28;20458;-77
2022/06/27 02:24:39;;;;;;;5.93;5.20;;;;;;;;;;5054063;28;20432;-78
2022/06/27 02:27:07;;;;;;;13.90;6.00;;;;;;;;;;5054411;28;20410;-79
2022/06/27 02:29:33;;;;;;;14.30;5.40;;;;;;;;;;5054270;28;20391;-78
2022/06/27 02:32:01;;;;;;;9.20;5.90;;;;;;;;;;5054344;28;20435;-79
2022/06/27 02:34:27;;;;;;;10.80;6.10;;;;;;;;;;5054006;28;20420;-78
2022/06/27 02:36:55;;;;;;;8.90;4.90;;;;;;;;;;5053066;28;20555;-78
2022/06/27 02:39:25;;;;;;;9.37;5.93;;;;;;;;;;5054229;28;20449;-77
2022/06/27 02:41:54;;;;;;;8.83;5.60;;;;;;;;;;5054299;28;20383;-78
2022/06/27 02:44:21;;;;;;;7.90;5.93;;;;;;;;;;5053730;28;20404;-77
2022/06/27 02:46:49;;;;;;;8.93;5.30;;;;;;;;;;5054096;28;20383;-79
2022/06/27 02:49:15;;;;;;;12.20;6.20;;;;;;;;;;5054104;28;20518;-78
2022/06/27 02:51:41;;;;;;;8.13;5.40;;;;;;;;;;5053910;28;20410;-78
2022/06/27 02:54:20;;;;;;;8.00;6.00;;;;;;;;;;5051381;28;20945;-77
2022/06/27 02:57:06;;;;;;;12.13;5.87;;;;;;;;;;5053906;28;21028;-76
2022/06/27 02:59:35;;;;;;;9.93;5.80;;;;;;;;;;5042682;28;20416;-78
2022/06/27 03:02:01;;;;;;;6.60;5.53;;;;;;;;;;5053665;28;20859;-78
2022/06/27 03:04:27;;;;;;;9.80;5.70;;;;;;;;;;5052072;28;20404;-77
2022/06/27 03:06:53;;;;;;;9.80;5.60;;;;;;;;;;5053586;28;20557;-77
2022/06/27 03:09:19;;;;;;;10.73;6.23;;;;;;;;;;5053611;28;20482;-77
2022/06/27 03:11:48;;;;;;;7.00;5.57;;;;;;;;;;5053476;28;20395;-78
2022/06/27 03:14:14;;;;;;;9.17;5.87;;;;;;;;;;5053145;28;20781;-77
2022/06/27 03:16:40;;;;;;;11.87;5.37;;;;;;;;;;5053550;28;20475;-77
2022/06/27 03:19:06;;;;;;;6.73;5.63;;;;;;;;;;5053662;28;20394;-78
2022/06/27 03:21:32;;;;;;;9.83;5.53;;;;;;;;;;5053549;28;20484;-77
2022/06/27 03:24:00;;;;;;;9.90;4.90;;;;;;;;;;5052982;28;20394;-77
2022/06/27 03:26:26;;;;;;;7.53;4.90;;;;;;;;;;5053240;28;20535;-77
2022/06/27 03:28:52;;;;;;;8.03;4.80;;;;;;;;;;5053456;28;20408;-77
2022/06/27 03:31:18;;;;;;;6.70;4.93;;;;;;;;;;5053296;28;20523;-78
2022/06/27 03:33:44;;;;;;;12.37;5.13;;;;;;;;;;5053051;28;20432;-79
2022/06/27 03:36:11;;;;;;;10.60;4.70;;;;;;;;;;5051637;28;20526;-78
2022/06/27 03:38:37;;;;;;;6.37;4.53;;;;;;;;;;5053271;28;20504;-79
2022/06/27 03:41:03;;;;;;;7.60;5.10;;;;;;;;;;5053068;28;20467;-79
2022/06/27 03:43:29;;;;;;;9.23;4.73;;;;;;;;;;5052789;28;20405;-77
2022/06/27 03:45:56;;;;;;;7.03;4.27;;;;;;;;;;5051644;28;20429;-79
2022/06/27 03:51:07;;;;;;;11.00;4.30;;;;;;;;;;5053293;28;20512;-78
2022/06/27 03:53:33;;;;;;;5.63;4.40;;;;;;;;;;5052593;28;20411;-77
2022/06/27 03:55:59;;;;;;;12.20;5.87;;;;;;;;;;5051473;28;20425;-79
2022/06/27 03:58:25;;;;;;;11.90;5.13;;;;;;;;;;5051827;28;20809;-78
2022/06/27 04:00:51;;;;;;;11.90;5.97;;;;;;;;;;5052966;28;20464;-78
2022/06/27 04:03:17;;;;;;;8.17;5.23;;;;;;;;;;5052424;28;20475;-76
2022/06/27 04:05:43;;;;;;;7.73;5.30;;;;;;;;;;5052626;28;20425;-78
2022/06/27 04:08:09;;;;;;;9.10;5.20;;;;;;;;;;5052622;28;20395;-78
2022/06/27 04:10:35;;;;;;;9.80;5.33;;;;;;;;;;5051429;28;20703;-77
2022/06/27 04:13:01;;;;;;;7.90;5.33;;;;;;;;;;5052396;28;20427;-78
2022/06/27 04:15:27;;;;;;;15.73;5.47;;;;;;;;;;5052579;28;20505;-77
2022/06/27 04:17:53;;;;;;;9.57;5.30;;;;;;;;;;5051275;28;20853;-77
2022/06/27 04:20:19;;;;;;;11.80;5.10;;;;;;;;;;5052687;28;20581;-78
2022/06/27 04:22:45;;;;;;;6.13;5.03;;;;;;;;;;5052188;28;20379;-78
2022/06/27 04:25:11;;;;;;;8.67;5.10;;;;;;;;;;5052281;28;20434;-78
2022/06/27 04:27:37;;;;;;;11.10;6.40;;;;;;;;;;5052411;28;20387;-77
2022/06/27 04:30:04;;;;;;;6.27;5.40;;;;;;;;;;5052425;28;20420;-77
2022/06/27 04:32:30;;;;;;;7.80;5.80;;;;;;;;;;5050845;28;20515;-78
2022/06/27 04:34:56;;;;;;;11.50;6.27;;;;;;;;;;5052010;28;20425;-80
2022/06/27 04:37:22;;;;;;;7.90;5.23;;;;;;;;;;5052459;28;20479;-77
2022/06/27 04:39:49;;;;;;;11.40;5.00;;;;;;;;;;5052343;28;20379;-77
2022/06/27 04:42:15;;;;;;;9.00;5.33;;;;;;;;;;5052164;28;20379;-77
2022/06/27 04:44:42;;;;;;;11.50;5.03;;;;;;;;;;5052000;28;20428;-77
2022/06/27 04:47:08;;;;;;;5.67;5.07;;;;;;;;;;5052350;28;20390;-78
2022/06/27 04:49:35;;;;;;;11.60;5.70;;;;;;;;;;5052271;28;20495;-77
2022/06/27 04:52:02;;;;;;;13.67;6.70;;;;;;;;;;5052268;28;20431;-79
2022/06/27 04:54:28;;;;;;;11.13;6.83;;;;;;;;;;5051775;28;20486;-77
2022/06/27 04:56:54;;;;;;;12.70;6.50;;;;;;;;;;5051981;28;20463;-77
2022/06/27 04:59:21;;;;;;;9.93;6.67;;;;;;;;;;5052195;28;20750;-77
2022/06/27 05:01:49;;;;;;;10.63;7.73;;;;;;;;;;5052281;28;20400;-77
2022/06/27 05:04:15;;;;;;;13.00;7.77;;;;;;;;;;5051811;28;20371;-77
2022/06/27 05:06:42;;;;;;;18.00;8.90;;;;;;;;;;5051804;28;20436;-77
2022/06/27 05:09:08;;;;;;;15.63;9.10;;;;;;;;;;5052130;28;20408;-78
2022/06/27 05:11:34;;;;;;;10.97;7.97;;;;;;;;;;5052033;28;20901;-77
2022/06/27 05:14:00;;;;;;;11.30;8.37;;;;;;;;;;5051730;28;20463;-78
2022/06/27 05:16:26;;;;;;;11.90;8.27;;;;;;;;;;5053294;28;20506;-79
2022/06/27 05:18:52;;;;;;;9.63;8.00;;;;;;;;;;5055718;28;20939;-77
2022/06/27 05:21:18;;;;;;;15.70;9.93;;;;;;;;;;5055932;28;20408;-79
2022/06/27 05:23:44;;;;;;;18.10;10.50;;;;;;;;;;5055321;28;20379;-77
2022/06/27 05:26:10;;;;;;;13.80;10.27;;;;;;;;;;5055639;28;20409;-77
2022/06/27 05:28:36;;;;;;;14.80;9.70;;;;;;;;;;5055590;28;20405;-77
2022/06/27 05:31:02;;;;;;;11.60;9.53;;;;;;;;;;5054161;28;20403;-78
2022/06/27 05:33:28;;;;;;;15.50;9.97;;;;;;;;;;5055195;28;20474;-77
2022/06/27 05:35:54;;;;;;;12.70;9.90;;;;;;;;;;5055434;28;20777;-78
2022/06/27 05:38:20;;;;;;;15.47;10.90;;;;;;;;;;5054018;28;20851;-78
2022/06/27 05:40:46;;;;;;;14.80;10.90;;;;;;;;;;5055401;28;20406;-77
2022/06/27 05:43:14;;;;;;;14.10;11.93;;;;;;;;;;5053747;28;20395;-78
2022/06/27 05:45:40;;;;;;;16.07;11.00;;;;;;;;;;5055360;28;20411;-77
2022/06/27 05:48:07;;;;;;;12.63;10.80;;;;;;;;;;5054062;28;20402;-79
2022/06/27 05:50:33;;;;;;;12.37;10.70;;;;;;;;;;5055259;28;20419;-77
2022/06/27 05:53:00;;;;;;;11.87;10.30;;;;;;;;;;5054803;28;20753;-77
2022/06/27 05:55:28;;;;;;;12.87;9.70;;;;;;;;;;5054965;28;20533;-79
2022/06/27 05:57:54;;;;;;;11.83;9.40;;;;;;;;;;5054969;28;21142;-78
2022/06/27 06:00:21;;;;;;;16.10;12.50;;;;;;;;;;5055005;28;20387;-78
2022/06/27 06:02:47;;;;;;;13.40;12.00;;;;;;;;;;5055231;28;20484;-78
2022/06/27 06:05:14;;;;;;;13.93;12.50;;;;;;;;;;5054676;28;20464;-77
2022/06/27 06:07:43;;;;;;;15.57;12.43;;;;;;;;;;5054020;28;20441;-78
2022/06/27 06:10:09;;;;;;;15.53;11.97;;;;;;;;;;5053422;28;20446;-77
2022/06/27 06:12:35;;;;;;;12.70;11.07;;;;;;;;;;5054886;28;20490;-78
2022/06/27 06:15:04;;;;;;;15.57;11.17;;;;;;;;;;5054331;28;20436;-77
2022/06/27 06:17:33;;;;;;;11.43;10.30;;;;;;;;;;5054590;28;20459;-78
2022/06/27 06:19:59;;;;;;;12.07;10.80;;;;;;;;;;5054639;28;20741;-77
2022/06/27 06:22:26;;;;;;;11.53;10.40;;;;;;;;;;5054585;28;20770;-78
2022/06/27 06:24:52;;;;;;;13.03;10.90;;;;;;;;;;5054332;28;20507;-77
2022/06/27 06:27:19;;;;;;;14.23;9.90;;;;;;;;;;5053028;28;20945;-78
2022/06/27 06:29:45;;;;;;;12.83;10.53;;;;;;;;;;5054416;28;20413;-78
2022/06/27 06:32:12;;;;;;;11.87;10.67;;;;;;;;;;5054355;28;20410;-78
2022/06/27 06:34:38;;;;;;;11.87;10.63;;;;;;;;;;5053956;28;20779;-78
2022/06/27 06:37:09;;;;;;;15.37;10.40;;;;;;;;;;5054407;28;20503;-76
2022/06/27 06:39:35;;;;;;;14.90;11.20;;;;;;;;;;5054111;28;20419;-78
2022/06/27 06:42:01;;;;;;;13.90;10.83;;;;;;;;;;5054255;28;20897;-75
2022/06/27 06:44:27;;;;;;;13.73;11.60;;;;;;;;;;5052532;28;20470;-76
2022/06/27 06:46:55;;;;;;;13.43;10.70;;;;;;;;;;5054073;28;20391;-75
2022/06/27 06:49:21;;;;;;;13.23;11.17;;;;;;;;;;5053864;28;20423;-75
2022/06/27 06:51:48;;;;;;;16.07;11.17;;;;;;;;;;5053807;28;20409;-74
2022/06/27 06:54:18;;;;;;;10.40;9.40;;;;;;;;;;5053649;28;20507;-76
2022/06/27 06:56:46;;;;;;;12.70;11.23;;;;;;;;;;5053823;28;20445;-75
2022/06/27 06:59:13;;;;;;;11.30;9.97;;;;;;;;;;5053827;28;20383;-75
2022/06/27 07:01:39;;;;;;;12.80;10.30;;;;;;;;;;5053832;28;20413;-76
2022/06/27 07:04:05;;;;;;;14.03;11.10;;;;;;;;;;5053296;28;20424;-75
2022/06/27 07:06:32;;;;;;;13.63;9.97;;;;;;;;;;5052408;28;20888;-75
2022/06/27 07:08:59;;;;;;;11.63;9.30;;;;;;;;;;5053824;28;20436;-75
2022/06/27 07:11:27;;;;;;;18.17;11.50;;;;;;;;;;5053598;28;20428;-75
2022/06/27 07:13:53;;;;;;;15.83;10.37;;;;;;;;;;5053081;28;20387;-75
2022/06/27 07:16:20;;;;;;;12.60;11.00;;;;;;;;;;5053482;28;20555;-75
2022/06/27 07:18:47;;;;;;;13.03;11.53;;;;;;;;;;5053252;28;20413;-76
2022/06/27 07:21:20;;;;;;;18.00;11.97;;;;;;;;;;5053538;28;20455;-76
2022/06/27 07:23:47;;;;;;;12.63;9.93;;;;;;;;;;5053175;28;20379;-75
2022/06/27 07:26:13;;;;;;;12.13;10.17;;;;;;;;;;5053263;28;20424;-75
2022/06/27 07:28:40;;;;;;;10.83;9.83;;;;;;;;;;5053364;28;20412;-76
2022/06/27 07:31:11;;;;;;;16.90;11.50;;;;;;;;;;5053108;28;20388;-76
2022/06/27 07:33:38;;;;;;;14.13;10.00;;;;;;;;;;5053050;28;20742;-75
2022/06/27 07:36:05;;;;;;;13.47;10.10;;;;;;;;;;5053015;28;20424;-76
2022/06/27 07:38:32;;;;;;;15.17;10.03;;;;;;;;;;5051210;28;20402;-75
2022/06/27 07:40:59;;;;;;;13.80;12.40;;;;;;;;;;5052911;28;20427;-76
2022/06/27 07:43:25;;;;;;;15.23;13.40;;;;;;;;;;5052770;28;20807;-75
2022/06/27 07:45:51;;;;;;;17.60;11.93;;;;;;;;;;5052841;28;20434;-75
2022/06/27 07:48:20;;;;;;;13.57;12.03;;;;;;;;;;5051592;28;20467;-76
2022/06/27 07:50:46;;;;;;;10.87;9.87;;;;;;;;;;5053134;28;20433;-75
2022/06/27 07:53:17;;;;;;;14.10;10.53;;;;;;;;;;5052430;28;20826;-75
2022/06/27 07:55:49;;;;;;;13.57;10.73;;;;;;;;;;5052909;28;20440;-75
2022/06/27 07:58:16;;;;;;;10.67;9.57;;;;;;;;;;5051312;28;20464;-75
2022/06/27 08:00:47;;;;;;;12.90;10.33;;;;;;;;;;5053018;28;20408;-75
2022/06/27 08:06:00;;;;;;;15.70;11.17;;;;;;;;;;5052872;28;20420;-74
2022/06/27 08:08:27;;;;;;;13.80;10.43;;;;;;;;;;5052952;28;20490;-76
2022/06/27 08:10:53;;;;;;;17.30;12.07;;;;;;;;;;5052895;28;20414;-75
2022/06/27 08:13:19;;;;;;;11.97;10.40;;;;;;;;;;5052295;28;20425;-76
2022/06/27 08:15:47;;;;;;;12.33;11.03;;;;;;;;;;5052803;28;20432;-74
2022/06/27 08:18:13;;;;;;;20.60;12.00;;;;;;;;;;5052577;28;20517;-74
2022/06/27 08:20:40;;;;;;;15.00;11.27;;;;;;;;;;5052685;28;20951;-75
2022/06/27 08:23:07;;;;;;;14.17;12.30;;;;;;;;;;5051223;28;20913;-74
2022/06/27 08:25:34;;;;;;;15.47;12.00;;;;;;;;;;5052429;28;20544;-74
2022/06/27 08:28:00;;;;;;;13.07;10.20;;;;;;;;;;5052499;28;20884;-74
2022/06/27 08:30:27;;;;;;;15.97;12.93;;;;;;;;;;5052507;28;20455;-75
2022/06/27 08:32:55;;;;;;;16.00;11.80;;;;;;;;;;5052241;28;20407;-74
2022/06/27 08:35:22;;;;;;;16.20;10.93;;;;;;;;;;5052520;28;20407;-75
2022/06/27 08:37:50;;;;;;;17.20;10.97;;;;;;;;;;5052361;28;20459;-75
2022/06/27 08:40:17;;;;;;;20.57;11.67;;;;;;;;;;5052430;28;20428;-74
2022/06/27 08:42:44;;;;;;;14.90;10.93;;;;;;;;;;5052389;28;20847;-74
2022/06/27 08:45:11;;;;;;;16.93;10.83;;;;;;;;;;5052093;28;20399;-75
2022/06/27 08:47:38;;;;;;;16.03;11.70;;;;;;;;;;5052362;28;20396;-74
2022/06/27 08:50:04;;;;;;;13.73;11.00;;;;;;;;;;5052234;28;20509;-75
2022/06/27 08:52:31;;;;;;;15.40;11.40;;;;;;;;;;5053726;28;20408;-76
2022/06/27 08:55:01;;;;;;;20.00;12.10;;;;;;;;;;5056017;28;20407;-75
2022/06/27 08:57:27;;;;;;;21.60;11.83;;;;;;;;;;5056195;28;20455;-75
2022/06/27 08:59:53;;;;;;;18.00;10.60;;;;;;;;;;5056148;28;20463;-75
2022/06/27 09:02:23;;;;;;;18.93;11.20;;;;;;;;;;5056042;28;20973;-75
2022/06/27 09:04:57;;;;;;;13.70;10.43;;;;;;;;;;5055657;28;20763;-75
2022/06/27 09:07:24;;;;;;;13.33;10.37;;;;;;;;;;5056177;28;20406;-75
2022/06/27 09:09:50;;;;;;;16.20;11.37;;;;;;;;;;5056137;28;20427;-75
2022/06/27 09:12:17;;;;;;;13.57;10.30;;;;;;;;;;5056007;28;20412;-75
2022/06/27 09:14:43;;;;;;;18.53;10.20;;;;;;;;;;5055406;28;20406;-74
2022/06/27 09:17:12;;;;;;;20.13;10.53;;;;;;;;;;5054633;28;20462;-74
2022/06/27 09:19:46;;;;;;;16.07;10.30;;;;;;;;;;5055839;28;20422;-77
2022/06/27 09:22:14;;;;;;;15.47;11.17;;;;;;;;;;5055957;28;20396;-75
2022/06/27 09:24:57;;;;;;;13.80;10.10;;;;;;;;;;5053938;28;20442;-74
2022/06/27 09:27:38;;;;;;;16.00;10.60;;;;;;;;;;5055185;28;20410;-74
2022/06/27 09:30:22;;;;;;;16.23;10.77;;;;;;;;;;5055685;28;20478;-76
2022/06/27 09:32:58;;;;;;;14.80;9.43;;;;;;;;;;5055306;28;20842;-76
2022/06/27 09:35:25;;;;;;;13.30;10.80;;;;;;;;;;5055562;28;20490;-76
2022/06/27 09:37:52;;;;;;;20.37;10.93;;;;;;;;;;5054997;28;20771;-75
2022/06/27 09:40:18;;;;;;;17.17;10.90;;;;;;;;;;5054281;28;20757;-73
2022/06/27 09:42:46;;;;;;;12.60;10.10;;;;;;;;;;5055253;28;20413;-75
2022/06/27 09:45:13;;;;;;;17.23;10.80;;;;;;;;;;5055167;28;20473;-75
2022/06/27 09:47:39;;;;;;;13.37;9.10;;;;;;;;;;5055322;28;20411;-75
2022/06/27 09:50:06;;;;;;;13.80;10.10;;;;;;;;;;5055429;28;20405;-74
2022/06/27 09:52:32;;;;;;;12.10;9.77;;;;;;;;;;5055292;28;20423;-76
2022/06/27 09:54:58;;;;;;;16.77;10.60;;;;;;;;;;5054744;28;20436;-74
2022/06/27 09:57:24;;;;;;;12.63;10.10;;;;;;;;;;5055005;28;20467;-74
2022/06/27 09:59:51;;;;;;;13.30;10.23;;;;;;;;;;5055147;28;20387;-75
2022/06/27 10:02:19;;;;;;;11.13;8.90;;;;;;;;;;5054903;28;20408;-76
2022/06/27 10:04:46;;;;;;;10.17;8.43;;;;;;;;;;5054650;28;20436;-75
2022/06/27 10:07:12;;;;;;;9.40;7.80;;;;;;;;;;5054870;28;20455;-75
2022/06/27 10:09:40;;;;;;;14.83;7.40;;;;;;;;;;5054937;28;20975;-77
2022/06/27 10:12:25;;;;;;;13.23;8.47;;;;;;;;;;5054888;28;20379;-76
2022/06/27 10:15:10;;;;;;;11.77;8.63;;;;;;;;;;5053316;28;20482;-77
2022/06/27 10:17:37;;;;;;;11.57;8.80;;;;;;;;;;5054841;28;20470;-75
2022/06/27 10:20:07;;;;;;;13.33;8.57;;;;;;;;;;5054629;28;20387;-75
2022/06/27 10:22:33;;;;;;;14.77;8.30;;;;;;;;;;5048578;28;20408;-76
2022/06/27 10:25:22;;;;;;;11.87;8.60;;;;;;;;;;5034268;28;20421;-75
2022/06/27 10:27:50;;;;;;;11.87;8.97;;;;;;;;;;5030613;28;20406;-76
2022/06/27 10:30:34;;;;;;;9.67;8.70;;;;;;;;;;5034709;28;20410;-75
2022/06/27 10:33:00;;;;;;;10.20;8.20;;;;;;;;;;5034202;28;20432;-76
2022/06/27 10:35:27;;;;;;;12.10;9.93;;;;;;;;;;5034288;28;20930;-75
2022/06/27 10:37:53;;;;;;;21.37;9.47;;;;;;;;;;5034600;28;20530;-75
2022/06/27 10:40:19;;;;;;;14.43;10.40;;;;;;;;;;5034566;28;20479;-76
2022/06/27 10:42:46;;;;;;;12.73;10.60;;;;;;;;;;5034209;28;20389;-76
2022/06/27 10:45:32;;;;;;;15.90;9.97;;;;;;;;;;5033992;28;20457;-75
2022/06/27 10:48:01;;;;;;;13.63;10.20;;;;;;;;;;5034258;28;20413;-76
2022/06/27 10:50:31;;;;;;;14.00;10.03;;;;;;;;;;5034144;28;20396;-76
2022/06/27 10:53:29;;;;;;;14.90;11.50;;;;;;;;;;5045577;28;20391;-77
2022/06/27 10:55:55;;;;;;;13.77;11.50;;;;;;;;;;5017844;28;20854;-76
2022/06/27 10:58:23;;;;;;;17.03;11.60;;;;;;;;;;5032774;28;20858;-78
2022/06/27 11:00:50;;;;;;;15.47;10.67;;;;;;;;;;5034044;28;20381;-78
2022/06/27 11:03:23;;;;;;;16.30;10.63;;;;;;;;;;5033708;28;20772;-76
2022/06/27 11:05:54;;;;;;;16.60;11.07;;;;;;;;;;5033934;28;20395;-76
2022/06/27 11:08:23;;;;;;;14.83;10.43;;;;;;;;;;5034007;28;20472;-76
2022/06/27 11:10:50;;;;;;;15.60;10.43;;;;;;;;;;5039098;28;20388;-75
2022/06/27 11:13:54;;;;;;;14.17;11.57;;;;;;;;;;5043313;28;20495;-76
2022/06/27 11:16:22;;;;;;;13.60;10.23;;;;;;;;;;5001240;28;21153;-76
2022/06/27 11:18:52;;;;;;;12.00;10.40;;;;;;;;;;4992866;28;20419;-76
2022/06/27 11:21:25;;;;;;;18.13;11.63;;;;;;;;;;5013549;28;20441;-75
2022/06/27 11:23:52;;;;;;;13.70;11.03;;;;;;;;;;5033166;28;20754;-76
2022/06/27 11:26:19;;;;;;;13.93;11.10;;;;;;;;;;5033663;28;20737;-74
2022/06/27 11:34:15;;;;;;;13.63;10.10;;;;;;;;;;5033424;28;20417;-75
2022/06/27 11:36:41;;;;;;;14.80;10.60;;;;;;;;;;5035835;28;20443;-74
2022/06/27 11:39:07;;;;;;;12.17;9.57;;;;;;;;;;5043473;28;20376;-77
2022/06/27 11:41:38;;;;;;;10.20;9.07;;;;;;;;;;5038230;28;20381;-77
2022/06/27 11:44:06;;;;;;;11.30;10.20;;;;;;;;;;5032946;28;20388;-75
2022/06/27 11:46:36;;;;;;;9.97;8.80;;;;;;;;;;5031815;28;20445;-76
2022/06/27 11:49:04;;;;;;;12.40;9.87;;;;;;;;;;5033135;28;20513;-76
2022/06/27 11:51:32;;;;;;;10.17;8.50;;;;;;;;;;5033199;28;20416;-75
2022/06/27 11:54:03;;;;;;;11.90;8.20;;;;;;;;;;5032743;28;20405;-74
2022/06/27 11:56:30;;;;;;;11.73;8.60;;;;;;;;;;5033080;28;20522;-75
2022/06/27 11:58:57;;;;;;;7.73;6.93;;;;;;;;;;5032981;28;20416;-75
2022/06/27 12:01:23;;;;;;;11.90;7.63;;;;;;;;;;5033123;28;20432;-76
2022/06/27 12:04:06;;;;;;;10.60;7.53;;;;;;;;;;5032571;28;20409;-77
2022/06/27 12:06:32;;;;;;;15.33;8.37;;;;;;;;;;5032770;28;20518;-77
2022/06/27 12:09:01;;;;;;;12.00;6.87;;;;;;;;;;5033073;28;20413;-77
2022/06/27 12:11:29;;;;;;;9.77;6.67;;;;;;;;;;5032819;28;20433;-77
2022/06/27 12:13:59;;;;;;;8.90;7.30;;;;;;;;;;5032359;28;20416;-76
2022/06/27 12:16:25;;;;;;;7.80;5.30;;;;;;;;;;5032627;28;20494;-78
2022/06/27 12:18:51;;;;;;;7.70;5.73;;;;;;;;;;5032830;28;20405;-77
2022/06/27 12:21:18;;;;;;;7.73;6.07;;;;;;;;;;5032947;28;20411;-76
2022/06/27 12:23:44;;;;;;;8.80;5.17;;;;;;;;;;5032469;28;20766;-77
2022/06/27 12:26:10;;;;;;;12.67;5.97;;;;;;;;;;5032342;28;20425;-78
2022/06/27 12:28:36;;;;;;;7.93;5.10;;;;;;;;;;5032781;28;20980;-76
2022/06/27 12:31:02;;;;;;;8.00;4.50;;;;;;;;;;5032518;28;20535;-76
2022/06/27 12:33:28;;;;;;;9.70;6.10;;;;;;;;;;5032464;28;20402;-77
2022/06/27 12:35:54;;;;;;;7.73;6.00;;;;;;;;;;5032413;28;20404;-78
2022/06/27 12:38:21;;;;;;;6.47;5.87;;;;;;;;;;5032300;28;20472;-76
2022/06/27 12:40:48;;;;;;;8.23;5.47;;;;;;;;;;5032584;28;20406;-78
2022/06/27 12:43:14;;;;;;;8.60;5.23;;;;;;;;;;5032113;28;20421;-77
2022/06/27 12:45:40;;;;;;;10.37;5.47;;;;;;;;;;5032526;28;20434;-76
2022/06/27 12:48:07;;;;;;;8.20;5.73;;;;;;;;;;5031261;28;20513;-76
2022/06/27 12:50:34;;;;;;;8.90;5.53;;;;;;;;;;5032514;28;20900;-77
2022/06/27 12:53:00;;;;;;;11.67;6.60;;;;;;;;;;5030925;28;20434;-77
2022/06/27 12:55:26;;;;;;;11.30;6.27;;;;;;;;;;5032344;28;20792;-77
2022/06/27 12:57:52;;;;;;;9.00;5.23;;;;;;;;;;5032466;28;20834;-76
2022/06/27 13:00:19;;;;;;;5.20;4.00;;;;;;;;;;5030933;28;20409;-77
2022/06/27 13:02:45;;;;;;;9.10;4.80;;;;;;;;;;5032264;28;20422;-77
2022/06/27 13:05:12;;;;;;;5.63;3.97;;;;;;;;;;5032148;28;20776;-76
2022/06/27 13:07:38;;;;;;;5.83;4.37;;;;;;;;;;5032504;28;20887;-75
2022/06/27 13:10:04;;;;;;;5.80;3.87;;;;;;;;;;5035153;28;20431;-76
2022/06/27 13:12:30;;;;;;;5.80;3.80;;;;;;;;;;5041864;28;20909;-75
2022/06/27 13:14:56;;;;;;;5.17;4.50;;;;;;;;;;5043488;28;20440;-75
2022/06/27 13:17:24;;;;;;;8.80;4.63;;;;;;;;;;5052123;28;20466;-77
2022/06/27 13:19:51;;;;;;;6.30;4.27;;;;;;;;;;5052356;28;20419;-77
2022/06/27 13:22:18;;;;;;;4.30;3.60;;;;;;;;;;5052271;28;20412;-77
2022/06/27 13:24:44;;;;;;;5.70;3.50;;;;;;;;;;5051459;28;20483;-76
2022/06/27 13:27:10;;;;;;;5.50;4.17;;;;;;;;;;5052104;28;20416;-75
2022/06/27 13:29:36;;;;;;;7.27;4.10;;;;;;;;;;5050815;28;20412;-76
2022/06/27 13:32:02;;;;;;;4.10;3.40;;;;;;;;;;5052146;28;20514;-75
2022/06/27 13:34:29;;;;;;;7.23;4.03;;;;;;;;;;5051665;28;20440;-77
2022/06/27 13:36:55;;;;;;;6.70;4.30;;;;;;;;;;5052087;28;20472;-77
2022/06/27 13:39:24;;;;;;;6.00;3.10;;;;;;;;;;5054578;28;20847;-77
2022/06/27 13:41:50;;;;;;;8.63;3.70;;;;;;;;;;5055470;28;20792;-78
2022/06/27 13:44:16;;;;;;;6.17;3.40;;;;;;;;;;5053792;28;20409;-75
2022/06/27 13:46:42;;;;;;;6.00;3.60;;;;;;;;;;5055154;28;20436;-76
2022/06/27 13:49:08;;;;;;;4.50;4.10;;;;;;;;;;5046064;28;20430;-75
2022/06/27 13:51:34;;;;;;;5.37;3.20;;;;;;;;;;5036607;28;20543;-77
2022/06/27 13:54:00;;;;;;;8.23;4.23;;;;;;;;;;5034930;28;20453;-76
2022/06/27 13:56:26;;;;;;;10.10;4.37;;;;;;;;;;5035678;28;20516;-77
2022/06/27 13:58:52;;;;;;;4.07;3.20;;;;;;;;;;5035064;28;20493;-77
2022/06/27 14:01:18;;;;;;;7.80;3.70;;;;;;;;;;5035041;28;20425;-74
2022/06/27 14:03:45;;;;;;;5.10;3.07;;;;;;;;;;5034885;28;20424;-73
2022/06/27 14:08:56;;;;;;;5.83;3.50;;;;;;;;;;5035192;28;20504;-77
2022/06/27 14:11:21;;;;;;;4.57;3.67;;;;;;;;;;5034929;28;20413;-75
2022/06/27 14:13:49;;;;;;;4.97;3.97;;;;;;;;;;5034529;28;20471;-73
2022/06/27 14:16:15;;;;;;;5.20;3.87;;;;;;;;;;5034632;28;20426;-77
2022/06/27 14:18:41;;;;;;;10.30;2.57;;;;;;;;;;5034753;28;20937;-79
2022/06/27 14:21:07;;;;;;;15.57;3.03;;;;;;;;;;5038633;28;20428;-81
2022/06/27 14:23:33;;;;;;;7.93;2.10;;;;;;;;;;5033136;28;20516;-83
2022/06/27 14:25:59;;;;;;;7.27;2.03;;;;;;;;;;5054663;28;20483;-82
2022/06/27 14:28:25;;;;;;;4.10;1.67;;;;;;;;;;5054864;28;20394;-81
2022/06/27 14:30:51;;;;;;;9.00;2.20;;;;;;;;;;5054832;28;20420;-82
2022/06/27 14:33:17;;;;;;;7.80;1.60;;;;;;;;;;5053192;28;20456;-81
2022/06/27 14:35:43;;;;;;;3.30;1.40;;;;;;;;;;5054609;28;20773;-80
2022/06/27 14:38:09;;;;;;;4.47;1.70;;;;;;;;;;5051272;28;20457;-80
2022/06/27 14:40:36;;;;;;;3.77;1.60;;;;;;;;;;5034516;28;20410;-79
2022/06/27 14:43:02;;;;;;;3.13;1.60;;;;;;;;;;5034212;28;20410;-79
2022/06/27 14:45:28;;;;;;;1.67;1.10;;;;;;;;;;5034418;28;20898;-79